sensor_id;sensor_type;location;lat;lon;timestamp;P1;durP1;ratioP1;P2;durP2;ratioP2
38715;SDS011;24833;49.324;8.694;2023-11-19T00:01:59;2.47;;;2.28;;
38715;SDS011;24833;49.324;8.694;2023-11-19T00:04:26;2.80;;;1.98;;
38715;SDS011;24833;49.324;8.694;2023-11-19T00:06:53;2.45;;;2.05;;
38715;SDS011;24833;49.324;8.694;2023-11-19T00:09:20;3.45;;;2.13;;
38715;SDS011;24833;49.324;8.694;2023-11-19T00:11:47;2.25;;;1.98;;
38715;SDS011;24833;49.324;8.694;2023-11-19T00:14:17;3.10;;;2.13;;
38715;SDS011;24833;49.324;8.694;2023-11-19T00:16:44;2.47;;;2.28;;
38715;SDS011;24833;49.324;8.694;2023-11-19T00:19:11;4.18;;;2.22;;
38715;SDS011;24833;49.324;8.694;2023-11-19T00:21:38;2.38;;;2.17;;
38715;SDS011;24833;49.324;8.694;2023-11-19T00:24:07;1.48;;;1.35;;
38715;SDS011;24833;49.324;8.694;2023-11-19T00:26:35;1.65;;;1.55;;
38715;SDS011;24833;49.324;8.694;2023-11-19T00:29:02;1.67;;;1.50;;
38715;SDS011;24833;49.324;8.694;2023-11-19T00:31:29;1.73;;;1.63;;
38715;SDS011;24833;49.324;8.694;2023-11-19T00:33:57;1.80;;;1.45;;
38715;SDS011;24833;49.324;8.694;2023-11-19T00:36:24;1.85;;;1.55;;
38715;SDS011;24833;49.324;8.694;2023-11-19T00:38:51;1.55;;;1.45;;
38715;SDS011;24833;49.324;8.694;2023-11-19T00:41:19;1.50;;;1.40;;
38715;SDS011;24833;49.324;8.694;2023-11-19T00:43:46;1.50;;;1.10;;
38715;SDS011;24833;49.324;8.694;2023-11-19T00:46:13;1.10;;;0.95;;
38715;SDS011;24833;49.324;8.694;2023-11-19T00:48:40;1.45;;;1.35;;
38715;SDS011;24833;49.324;8.694;2023-11-19T00:51:07;1.63;;;1.52;;
38715;SDS011;24833;49.324;8.694;2023-11-19T00:53:34;1.20;;;1.10;;
38715;SDS011;24833;49.324;8.694;2023-11-19T00:56:01;1.27;;;1.17;;
38715;SDS011;24833;49.324;8.694;2023-11-19T00:58:29;1.52;;;1.13;;
38715;SDS011;24833;49.324;8.694;2023-11-19T01:00:56;1.10;;;1.00;;
38715;SDS011;24833;49.324;8.694;2023-11-19T01:03:23;1.23;;;1.13;;
38715;SDS011;24833;49.324;8.694;2023-11-19T01:05:51;1.60;;;1.27;;
38715;SDS011;24833;49.324;8.694;2023-11-19T01:08:20;1.10;;;0.98;;
38715;SDS011;24833;49.324;8.694;2023-11-19T01:10:47;1.17;;;1.00;;
38715;SDS011;24833;49.324;8.694;2023-11-19T01:13:14;1.00;;;0.95;;
38715;SDS011;24833;49.324;8.694;2023-11-19T01:15:41;1.20;;;1.10;;
38715;SDS011;24833;49.324;8.694;2023-11-19T01:18:09;1.27;;;1.15;;
38715;SDS011;24833;49.324;8.694;2023-11-19T01:20:37;1.45;;;0.80;;
38715;SDS011;24833;49.324;8.694;2023-11-19T01:23:04;0.93;;;0.93;;
38715;SDS011;24833;49.324;8.694;2023-11-19T01:25:32;1.20;;;1.10;;
38715;SDS011;24833;49.324;8.694;2023-11-19T01:27:59;1.08;;;1.00;;
38715;SDS011;24833;49.324;8.694;2023-11-19T01:30:26;1.45;;;0.90;;
38715;SDS011;24833;49.324;8.694;2023-11-19T01:32:53;0.90;;;0.90;;
38715;SDS011;24833;49.324;8.694;2023-11-19T01:35:20;0.73;;;0.73;;
38715;SDS011;24833;49.324;8.694;2023-11-19T01:37:49;2.90;;;0.65;;
38715;SDS011;24833;49.324;8.694;2023-11-19T01:40:20;0.60;;;0.60;;
38715;SDS011;24833;49.324;8.694;2023-11-19T01:42:48;0.85;;;0.75;;
38715;SDS011;24833;49.324;8.694;2023-11-19T01:45:21;1.10;;;1.05;;
38715;SDS011;24833;49.324;8.694;2023-11-19T01:47:55;1.05;;;0.95;;
38715;SDS011;24833;49.324;8.694;2023-11-19T01:50:28;0.95;;;0.85;;
38715;SDS011;24833;49.324;8.694;2023-11-19T01:52:56;0.90;;;0.80;;
38715;SDS011;24833;49.324;8.694;2023-11-19T01:55:24;0.90;;;0.90;;
38715;SDS011;24833;49.324;8.694;2023-11-19T01:57:54;1.23;;;1.00;;
38715;SDS011;24833;49.324;8.694;2023-11-19T02:00:26;1.42;;;1.27;;
38715;SDS011;24833;49.324;8.694;2023-11-19T02:02:53;1.13;;;0.90;;
38715;SDS011;24833;49.324;8.694;2023-11-19T02:05:21;1.13;;;1.08;;
38715;SDS011;24833;49.324;8.694;2023-11-19T02:07:49;1.33;;;1.23;;
38715;SDS011;24833;49.324;8.694;2023-11-19T02:10:17;1.38;;;1.27;;
38715;SDS011;24833;49.324;8.694;2023-11-19T02:12:45;1.73;;;1.38;;
38715;SDS011;24833;49.324;8.694;2023-11-19T02:15:13;1.40;;;1.30;;
38715;SDS011;24833;49.324;8.694;2023-11-19T02:17:40;1.30;;;1.20;;
38715;SDS011;24833;49.324;8.694;2023-11-19T02:20:07;1.60;;;1.15;;
38715;SDS011;24833;49.324;8.694;2023-11-19T02:22:37;1.15;;;1.05;;
38715;SDS011;24833;49.324;8.694;2023-11-19T02:25:06;1.67;;;1.58;;
38715;SDS011;24833;49.324;8.694;2023-11-19T02:27:47;1.60;;;1.30;;
38715;SDS011;24833;49.324;8.694;2023-11-19T02:30:22;1.23;;;1.15;;
38715;SDS011;24833;49.324;8.694;2023-11-19T02:35:25;1.00;;;1.00;;
38715;SDS011;24833;49.324;8.694;2023-11-19T02:37:53;1.40;;;1.30;;
38715;SDS011;24833;49.324;8.694;2023-11-19T02:40:21;1.35;;;1.20;;
38715;SDS011;24833;49.324;8.694;2023-11-19T02:42:51;1.83;;;1.13;;
38715;SDS011;24833;49.324;8.694;2023-11-19T02:45:23;0.95;;;0.95;;
38715;SDS011;24833;49.324;8.694;2023-11-19T02:47:52;1.13;;;1.08;;
38715;SDS011;24833;49.324;8.694;2023-11-19T02:50:19;1.63;;;1.35;;
38715;SDS011;24833;49.324;8.694;2023-11-19T02:52:54;1.30;;;1.02;;
38715;SDS011;24833;49.324;8.694;2023-11-19T02:55:23;1.80;;;1.15;;
38715;SDS011;24833;49.324;8.694;2023-11-19T02:57:51;1.20;;;0.93;;
38715;SDS011;24833;49.324;8.694;2023-11-19T03:00:23;0.90;;;0.90;;
38715;SDS011;24833;49.324;8.694;2023-11-19T03:03:02;1.40;;;1.30;;
38715;SDS011;24833;49.324;8.694;2023-11-19T03:05:45;1.77;;;1.10;;
38715;SDS011;24833;49.324;8.694;2023-11-19T03:08:13;1.20;;;1.05;;
38715;SDS011;24833;49.324;8.694;2023-11-19T03:10:45;1.40;;;1.30;;
38715;SDS011;24833;49.324;8.694;2023-11-19T03:13:12;1.10;;;1.10;;
38715;SDS011;24833;49.324;8.694;2023-11-19T03:15:41;1.98;;;1.50;;
38715;SDS011;24833;49.324;8.694;2023-11-19T03:18:08;1.67;;;1.30;;
38715;SDS011;24833;49.324;8.694;2023-11-19T03:20:36;1.23;;;1.13;;
38715;SDS011;24833;49.324;8.694;2023-11-19T03:23:03;1.40;;;1.30;;
38715;SDS011;24833;49.324;8.694;2023-11-19T03:25:30;2.00;;;1.80;;
38715;SDS011;24833;49.324;8.694;2023-11-19T03:28:00;1.53;;;1.43;;
38715;SDS011;24833;49.324;8.694;2023-11-19T03:30:31;1.45;;;1.35;;
38715;SDS011;24833;49.324;8.694;2023-11-19T03:33:00;1.85;;;1.75;;
38715;SDS011;24833;49.324;8.694;2023-11-19T03:35:28;1.92;;;1.73;;
38715;SDS011;24833;49.324;8.694;2023-11-19T03:37:56;1.75;;;1.65;;
38715;SDS011;24833;49.324;8.694;2023-11-19T03:40:23;2.53;;;1.88;;
38715;SDS011;24833;49.324;8.694;2023-11-19T03:42:52;1.73;;;1.63;;
38715;SDS011;24833;49.324;8.694;2023-11-19T03:45:19;1.73;;;1.63;;
38715;SDS011;24833;49.324;8.694;2023-11-19T03:47:47;1.88;;;1.77;;
38715;SDS011;24833;49.324;8.694;2023-11-19T03:50:16;2.22;;;2.00;;
38715;SDS011;24833;49.324;8.694;2023-11-19T03:52:46;2.30;;;1.88;;
38715;SDS011;24833;49.324;8.694;2023-11-19T03:55:14;1.88;;;1.70;;
38715;SDS011;24833;49.324;8.694;2023-11-19T03:57:42;2.35;;;1.92;;
38715;SDS011;24833;49.324;8.694;2023-11-19T04:00:09;1.67;;;1.58;;
38715;SDS011;24833;49.324;8.694;2023-11-19T04:02:40;1.90;;;1.40;;
38715;SDS011;24833;49.324;8.694;2023-11-19T04:05:07;2.55;;;1.95;;
38715;SDS011;24833;49.324;8.694;2023-11-19T04:07:36;2.72;;;1.77;;
38715;SDS011;24833;49.324;8.694;2023-11-19T04:10:03;2.75;;;1.60;;
38715;SDS011;24833;49.324;8.694;2023-11-19T04:12:31;1.27;;;1.20;;
38715;SDS011;24833;49.324;8.694;2023-11-19T04:14:58;1.83;;;1.67;;
38715;SDS011;24833;49.324;8.694;2023-11-19T04:17:27;2.00;;;1.88;;
38715;SDS011;24833;49.324;8.694;2023-11-19T04:19:54;2.40;;;1.50;;
38715;SDS011;24833;49.324;8.694;2023-11-19T04:22:22;1.65;;;1.55;;
38715;SDS011;24833;49.324;8.694;2023-11-19T04:24:50;2.20;;;1.73;;
38715;SDS011;24833;49.324;8.694;2023-11-19T04:27:17;1.65;;;1.55;;
38715;SDS011;24833;49.324;8.694;2023-11-19T04:29:44;2.47;;;1.92;;
38715;SDS011;24833;49.324;8.694;2023-11-19T04:32:14;2.65;;;1.77;;
38715;SDS011;24833;49.324;8.694;2023-11-19T04:34:41;2.40;;;2.05;;
38715;SDS011;24833;49.324;8.694;2023-11-19T04:37:08;2.08;;;1.90;;
38715;SDS011;24833;49.324;8.694;2023-11-19T04:39:38;2.00;;;1.77;;
38715;SDS011;24833;49.324;8.694;2023-11-19T04:42:06;2.42;;;1.98;;
38715;SDS011;24833;49.324;8.694;2023-11-19T04:44:33;2.00;;;1.80;;
38715;SDS011;24833;49.324;8.694;2023-11-19T04:47:00;2.15;;;1.92;;
38715;SDS011;24833;49.324;8.694;2023-11-19T04:49:27;1.75;;;1.65;;
38715;SDS011;24833;49.324;8.694;2023-11-19T04:51:54;4.45;;;2.28;;
38715;SDS011;24833;49.324;8.694;2023-11-19T04:54:21;2.33;;;2.13;;
38715;SDS011;24833;49.324;8.694;2023-11-19T04:56:49;2.33;;;2.13;;
38715;SDS011;24833;49.324;8.694;2023-11-19T04:59:16;2.70;;;2.35;;
38715;SDS011;24833;49.324;8.694;2023-11-19T05:01:46;2.13;;;1.90;;
38715;SDS011;24833;49.324;8.694;2023-11-19T05:04:14;3.42;;;2.72;;
38715;SDS011;24833;49.324;8.694;2023-11-19T05:06:41;2.40;;;2.20;;
38715;SDS011;24833;49.324;8.694;2023-11-19T05:09:08;3.88;;;2.30;;
38715;SDS011;24833;49.324;8.694;2023-11-19T05:11:38;1.85;;;1.75;;
38715;SDS011;24833;49.324;8.694;2023-11-19T05:14:17;2.50;;;2.30;;
38715;SDS011;24833;49.324;8.694;2023-11-19T05:16:46;3.35;;;2.30;;
38715;SDS011;24833;49.324;8.694;2023-11-19T05:19:14;2.60;;;2.40;;
38715;SDS011;24833;49.324;8.694;2023-11-19T05:21:42;2.40;;;2.20;;
38715;SDS011;24833;49.324;8.694;2023-11-19T05:24:10;2.85;;;2.38;;
38715;SDS011;24833;49.324;8.694;2023-11-19T05:26:38;2.95;;;2.67;;
38715;SDS011;24833;49.324;8.694;2023-11-19T05:29:05;2.33;;;2.10;;
38715;SDS011;24833;49.324;8.694;2023-11-19T05:31:32;3.35;;;2.85;;
38715;SDS011;24833;49.324;8.694;2023-11-19T05:34:03;2.95;;;2.55;;
38715;SDS011;24833;49.324;8.694;2023-11-19T05:36:30;2.75;;;2.55;;
38715;SDS011;24833;49.324;8.694;2023-11-19T05:38:58;2.45;;;2.25;;
38715;SDS011;24833;49.324;8.694;2023-11-19T05:41:25;2.20;;;2.00;;
38715;SDS011;24833;49.324;8.694;2023-11-19T05:43:52;2.70;;;2.50;;
38715;SDS011;24833;49.324;8.694;2023-11-19T05:46:19;3.20;;;2.00;;
38715;SDS011;24833;49.324;8.694;2023-11-19T05:48:47;2.78;;;2.30;;
38715;SDS011;24833;49.324;8.694;2023-11-19T05:51:14;2.58;;;2.38;;
38715;SDS011;24833;49.324;8.694;2023-11-19T05:53:42;2.47;;;2.28;;
38715;SDS011;24833;49.324;8.694;2023-11-19T05:56:09;3.05;;;2.75;;
38715;SDS011;24833;49.324;8.694;2023-11-19T05:58:36;2.40;;;2.20;;
38715;SDS011;24833;49.324;8.694;2023-11-19T06:01:05;3.83;;;2.38;;
38715;SDS011;24833;49.324;8.694;2023-11-19T06:03:34;2.63;;;2.13;;
38715;SDS011;24833;49.324;8.694;2023-11-19T06:06:03;2.33;;;1.98;;
38715;SDS011;24833;49.324;8.694;2023-11-19T06:08:31;4.47;;;1.90;;
38715;SDS011;24833;49.324;8.694;2023-11-19T06:10:58;3.90;;;2.22;;
38715;SDS011;24833;49.324;8.694;2023-11-19T06:13:27;1.80;;;1.70;;
38715;SDS011;24833;49.324;8.694;2023-11-19T06:15:57;3.28;;;1.70;;
38715;SDS011;24833;49.324;8.694;2023-11-19T06:18:24;1.60;;;1.48;;
38715;SDS011;24833;49.324;8.694;2023-11-19T06:20:52;2.22;;;1.60;;
38715;SDS011;24833;49.324;8.694;2023-11-19T06:23:19;1.77;;;1.48;;
38715;SDS011;24833;49.324;8.694;2023-11-19T06:25:46;1.60;;;1.50;;
38715;SDS011;24833;49.324;8.694;2023-11-19T06:28:13;2.13;;;1.50;;
38715;SDS011;24833;49.324;8.694;2023-11-19T06:30:41;1.45;;;1.27;;
38715;SDS011;24833;49.324;8.694;2023-11-19T06:33:08;1.40;;;1.20;;
38715;SDS011;24833;49.324;8.694;2023-11-19T06:35:35;1.25;;;1.15;;
38715;SDS011;24833;49.324;8.694;2023-11-19T06:38:03;1.90;;;1.30;;
38715;SDS011;24833;49.324;8.694;2023-11-19T06:40:33;2.40;;;1.40;;
38715;SDS011;24833;49.324;8.694;2023-11-19T06:43:03;2.60;;;1.58;;
38715;SDS011;24833;49.324;8.694;2023-11-19T06:45:31;1.08;;;0.98;;
38715;SDS011;24833;49.324;8.694;2023-11-19T06:48:02;1.08;;;0.95;;
38715;SDS011;24833;49.324;8.694;2023-11-19T06:50:31;1.02;;;0.90;;
38715;SDS011;24833;49.324;8.694;2023-11-19T06:52:58;2.17;;;1.00;;
38715;SDS011;24833;49.324;8.694;2023-11-19T06:55:26;1.20;;;0.95;;
38715;SDS011;24833;49.324;8.694;2023-11-19T06:57:53;1.13;;;1.00;;
38715;SDS011;24833;49.324;8.694;2023-11-19T07:00:20;1.60;;;0.90;;
38715;SDS011;24833;49.324;8.694;2023-11-19T07:02:47;1.63;;;1.27;;
38715;SDS011;24833;49.324;8.694;2023-11-19T07:05:16;0.95;;;0.90;;
38715;SDS011;24833;49.324;8.694;2023-11-19T07:07:43;1.15;;;0.82;;
38715;SDS011;24833;49.324;8.694;2023-11-19T07:10:13;2.28;;;1.27;;
38715;SDS011;24833;49.324;8.694;2023-11-19T07:12:40;1.30;;;1.10;;
38715;SDS011;24833;49.324;8.694;2023-11-19T07:15:08;2.60;;;1.00;;
38715;SDS011;24833;49.324;8.694;2023-11-19T07:17:36;1.00;;;0.80;;
38715;SDS011;24833;49.324;8.694;2023-11-19T07:20:03;1.17;;;0.95;;
38715;SDS011;24833;49.324;8.694;2023-11-19T07:22:32;1.23;;;1.13;;
38715;SDS011;24833;49.324;8.694;2023-11-19T07:24:59;1.50;;;1.05;;
38715;SDS011;24833;49.324;8.694;2023-11-19T07:27:26;1.13;;;1.08;;
38715;SDS011;24833;49.324;8.694;2023-11-19T07:29:54;1.10;;;1.00;;
38715;SDS011;24833;49.324;8.694;2023-11-19T07:32:21;0.93;;;0.88;;
38715;SDS011;24833;49.324;8.694;2023-11-19T07:34:48;1.02;;;0.80;;
38715;SDS011;24833;49.324;8.694;2023-11-19T07:37:15;1.10;;;0.90;;
38715;SDS011;24833;49.324;8.694;2023-11-19T07:39:43;1.35;;;1.20;;
38715;SDS011;24833;49.324;8.694;2023-11-19T07:42:10;1.20;;;1.10;;
38715;SDS011;24833;49.324;8.694;2023-11-19T07:44:37;1.20;;;1.05;;
38715;SDS011;24833;49.324;8.694;2023-11-19T07:47:04;2.03;;;1.20;;
38715;SDS011;24833;49.324;8.694;2023-11-19T07:49:31;1.00;;;0.90;;
38715;SDS011;24833;49.324;8.694;2023-11-19T07:51:59;1.48;;;1.38;;
38715;SDS011;24833;49.324;8.694;2023-11-19T07:54:26;0.90;;;0.90;;
38715;SDS011;24833;49.324;8.694;2023-11-19T07:56:53;1.48;;;1.35;;
38715;SDS011;24833;49.324;8.694;2023-11-19T07:59:20;2.00;;;0.98;;
38715;SDS011;24833;49.324;8.694;2023-11-19T08:01:47;0.95;;;0.80;;
38715;SDS011;24833;49.324;8.694;2023-11-19T08:04:14;1.27;;;1.00;;
38715;SDS011;24833;49.324;8.694;2023-11-19T08:06:42;0.80;;;0.80;;
38715;SDS011;24833;49.324;8.694;2023-11-19T08:09:09;1.85;;;0.88;;
38715;SDS011;24833;49.324;8.694;2023-11-19T08:11:43;1.13;;;1.02;;
38715;SDS011;24833;49.324;8.694;2023-11-19T08:14:11;1.02;;;1.02;;
38715;SDS011;24833;49.324;8.694;2023-11-19T08:16:39;1.50;;;1.05;;
38715;SDS011;24833;49.324;8.694;2023-11-19T08:19:06;0.93;;;0.90;;
38715;SDS011;24833;49.324;8.694;2023-11-19T08:21:36;1.88;;;1.42;;
38715;SDS011;24833;49.324;8.694;2023-11-19T08:24:03;1.23;;;0.85;;
38715;SDS011;24833;49.324;8.694;2023-11-19T08:26:30;1.55;;;1.00;;
38715;SDS011;24833;49.324;8.694;2023-11-19T08:28:57;1.40;;;1.10;;
38715;SDS011;24833;49.324;8.694;2023-11-19T08:31:24;2.28;;;1.35;;
38715;SDS011;24833;49.324;8.694;2023-11-19T08:33:52;1.98;;;1.17;;
38715;SDS011;24833;49.324;8.694;2023-11-19T08:36:19;0.95;;;0.82;;
38715;SDS011;24833;49.324;8.694;2023-11-19T08:38:47;1.48;;;1.08;;
38715;SDS011;24833;49.324;8.694;2023-11-19T08:41:15;0.93;;;0.90;;
38715;SDS011;24833;49.324;8.694;2023-11-19T08:43:45;1.80;;;1.10;;
38715;SDS011;24833;49.324;8.694;2023-11-19T08:46:12;1.73;;;1.40;;
38715;SDS011;24833;49.324;8.694;2023-11-19T08:48:40;1.23;;;1.05;;
38715;SDS011;24833;49.324;8.694;2023-11-19T08:51:07;1.85;;;1.20;;
38715;SDS011;24833;49.324;8.694;2023-11-19T08:53:34;1.05;;;0.80;;
38715;SDS011;24833;49.324;8.694;2023-11-19T08:56:01;0.73;;;0.73;;
38715;SDS011;24833;49.324;8.694;2023-11-19T08:58:30;1.02;;;0.93;;
38715;SDS011;24833;49.324;8.694;2023-11-19T09:00:57;1.38;;;0.90;;
38715;SDS011;24833;49.324;8.694;2023-11-19T09:03:25;1.42;;;0.88;;
38715;SDS011;24833;49.324;8.694;2023-11-19T09:05:53;0.98;;;0.95;;
38715;SDS011;24833;49.324;8.694;2023-11-19T09:08:20;1.77;;;1.00;;
38715;SDS011;24833;49.324;8.694;2023-11-19T09:10:47;1.13;;;0.90;;
38715;SDS011;24833;49.324;8.694;2023-11-19T09:13:14;1.25;;;0.90;;
38715;SDS011;24833;49.324;8.694;2023-11-19T09:15:41;1.17;;;1.05;;
38715;SDS011;24833;49.324;8.694;2023-11-19T09:18:09;1.70;;;1.00;;
38715;SDS011;24833;49.324;8.694;2023-11-19T09:20:36;0.90;;;0.90;;
38715;SDS011;24833;49.324;8.694;2023-11-19T09:23:05;1.00;;;0.90;;
38715;SDS011;24833;49.324;8.694;2023-11-19T09:25:33;1.27;;;1.17;;
38715;SDS011;24833;49.324;8.694;2023-11-19T09:28:03;3.90;;;1.07;;
38715;SDS011;24833;49.324;8.694;2023-11-19T09:30:30;1.35;;;1.15;;
38715;SDS011;24833;49.324;8.694;2023-11-19T09:33:00;1.50;;;1.10;;
38715;SDS011;24833;49.324;8.694;2023-11-19T09:35:27;1.35;;;1.25;;
38715;SDS011;24833;49.324;8.694;2023-11-19T09:37:54;1.27;;;1.17;;
38715;SDS011;24833;49.324;8.694;2023-11-19T09:40:21;1.77;;;1.40;;
38715;SDS011;24833;49.324;8.694;2023-11-19T09:42:48;1.35;;;1.25;;
38715;SDS011;24833;49.324;8.694;2023-11-19T09:45:16;3.63;;;1.17;;
38715;SDS011;24833;49.324;8.694;2023-11-19T09:47:46;1.33;;;1.23;;
38715;SDS011;24833;49.324;8.694;2023-11-19T09:50:15;3.38;;;1.33;;
38715;SDS011;24833;49.324;8.694;2023-11-19T09:55:13;1.38;;;0.85;;
38715;SDS011;24833;49.324;8.694;2023-11-19T09:57:41;1.25;;;1.13;;
38715;SDS011;24833;49.324;8.694;2023-11-19T10:00:10;1.95;;;1.50;;
38715;SDS011;24833;49.324;8.694;2023-11-19T10:02:41;1.20;;;1.10;;
38715;SDS011;24833;49.324;8.694;2023-11-19T10:05:13;2.17;;;1.58;;
38715;SDS011;24833;49.324;8.694;2023-11-19T10:07:41;1.75;;;1.38;;
38715;SDS011;24833;49.324;8.694;2023-11-19T10:10:09;1.45;;;1.35;;
38715;SDS011;24833;49.324;8.694;2023-11-19T10:12:40;1.83;;;1.70;;
38715;SDS011;24833;49.324;8.694;2023-11-19T10:15:24;2.30;;;1.85;;
38715;SDS011;24833;49.324;8.694;2023-11-19T10:17:57;4.40;;;1.88;;
38715;SDS011;24833;49.324;8.694;2023-11-19T10:20:24;2.00;;;1.70;;
38715;SDS011;24833;49.324;8.694;2023-11-19T10:22:52;1.85;;;1.50;;
38715;SDS011;24833;49.324;8.694;2023-11-19T10:25:22;1.88;;;1.77;;
38715;SDS011;24833;49.324;8.694;2023-11-19T10:27:54;1.63;;;1.42;;
38715;SDS011;24833;49.324;8.694;2023-11-19T10:30:23;2.25;;;1.65;;
38715;SDS011;24833;49.324;8.694;2023-11-19T10:33:09;3.15;;;1.70;;
38715;SDS011;24833;49.324;8.694;2023-11-19T10:35:54;2.40;;;1.80;;
38715;SDS011;24833;49.324;8.694;2023-11-19T10:38:25;1.92;;;1.50;;
38715;SDS011;24833;49.324;8.694;2023-11-19T10:40:53;1.67;;;1.40;;
38715;SDS011;24833;49.324;8.694;2023-11-19T10:43:21;2.58;;;1.80;;
38715;SDS011;24833;49.324;8.694;2023-11-19T10:45:49;3.47;;;1.65;;
38715;SDS011;24833;49.324;8.694;2023-11-19T10:48:18;2.40;;;1.67;;
38715;SDS011;24833;49.324;8.694;2023-11-19T10:50:46;3.35;;;1.83;;
38715;SDS011;24833;49.324;8.694;2023-11-19T10:53:20;3.55;;;1.90;;
38715;SDS011;24833;49.324;8.694;2023-11-19T10:55:52;3.10;;;1.95;;
38715;SDS011;24833;49.324;8.694;2023-11-19T10:58:25;3.03;;;1.63;;
38715;SDS011;24833;49.324;8.694;2023-11-19T11:01:00;2.83;;;1.70;;
38715;SDS011;24833;49.324;8.694;2023-11-19T11:03:39;2.22;;;1.70;;
38715;SDS011;24833;49.324;8.694;2023-11-19T11:06:07;3.45;;;1.70;;
38715;SDS011;24833;49.324;8.694;2023-11-19T11:08:39;2.60;;;1.60;;
38715;SDS011;24833;49.324;8.694;2023-11-19T11:11:07;6.55;;;2.10;;
38715;SDS011;24833;49.324;8.694;2023-11-19T11:13:36;2.05;;;1.60;;
38715;SDS011;24833;49.324;8.694;2023-11-19T11:16:08;2.38;;;1.98;;
38715;SDS011;24833;49.324;8.694;2023-11-19T11:18:35;2.65;;;1.77;;
38715;SDS011;24833;49.324;8.694;2023-11-19T11:21:05;1.77;;;1.60;;
38715;SDS011;24833;49.324;8.694;2023-11-19T11:29:46;3.17;;;1.98;;
38715;SDS011;24833;49.324;8.694;2023-11-19T11:33:01;3.67;;;1.95;;
38715;SDS011;24833;49.324;8.694;2023-11-19T11:35:55;3.70;;;2.08;;
38715;SDS011;24833;49.324;8.694;2023-11-19T11:38:49;4.60;;;1.45;;
38715;SDS011;24833;49.324;8.694;2023-11-19T11:41:17;5.20;;;2.00;;
38715;SDS011;24833;49.324;8.694;2023-11-19T11:43:54;4.15;;;2.20;;
38715;SDS011;24833;49.324;8.694;2023-11-19T11:49:03;3.78;;;2.28;;
38715;SDS011;24833;49.324;8.694;2023-11-19T11:57:07;3.08;;;1.77;;
38715;SDS011;24833;49.324;8.694;2023-11-19T12:02:11;4.95;;;1.77;;
38715;SDS011;24833;49.324;8.694;2023-11-19T12:04:42;4.28;;;1.95;;
38715;SDS011;24833;49.324;8.694;2023-11-19T12:09:48;3.28;;;1.75;;
38715;SDS011;24833;49.324;8.694;2023-11-19T12:12:35;3.22;;;1.58;;
38715;SDS011;24833;49.324;8.694;2023-11-19T12:15:05;4.55;;;1.65;;
38715;SDS011;24833;49.324;8.694;2023-11-19T12:17:41;5.13;;;1.90;;
38715;SDS011;24833;49.324;8.694;2023-11-19T12:20:17;5.18;;;1.90;;
38715;SDS011;24833;49.324;8.694;2023-11-19T12:22:49;3.13;;;1.55;;
38715;SDS011;24833;49.324;8.694;2023-11-19T12:25:18;2.55;;;1.63;;
38715;SDS011;24833;49.324;8.694;2023-11-19T12:27:49;5.32;;;1.50;;
38715;SDS011;24833;49.324;8.694;2023-11-19T12:30:28;3.72;;;1.77;;
38715;SDS011;24833;49.324;8.694;2023-11-19T12:32:56;1.58;;;1.25;;
38715;SDS011;24833;49.324;8.694;2023-11-19T12:35:24;3.25;;;1.38;;
38715;SDS011;24833;49.324;8.694;2023-11-19T12:37:51;3.85;;;1.70;;
38715;SDS011;24833;49.324;8.694;2023-11-19T12:40:23;3.88;;;1.70;;
38715;SDS011;24833;49.324;8.694;2023-11-19T12:42:52;2.45;;;1.45;;
38715;SDS011;24833;49.324;8.694;2023-11-19T12:45:21;3.25;;;1.30;;
38715;SDS011;24833;49.324;8.694;2023-11-19T12:47:50;2.63;;;1.67;;
38715;SDS011;24833;49.324;8.694;2023-11-19T12:53:24;2.33;;;1.40;;
38715;SDS011;24833;49.324;8.694;2023-11-19T12:55:53;4.10;;;1.63;;
38715;SDS011;24833;49.324;8.694;2023-11-19T12:58:30;2.03;;;1.30;;
38715;SDS011;24833;49.324;8.694;2023-11-19T13:01:05;3.20;;;1.33;;
38715;SDS011;24833;49.324;8.694;2023-11-19T13:03:35;3.33;;;1.65;;
38715;SDS011;24833;49.324;8.694;2023-11-19T13:08:39;2.80;;;1.48;;
38715;SDS011;24833;49.324;8.694;2023-11-19T13:11:29;1.70;;;1.30;;
38715;SDS011;24833;49.324;8.694;2023-11-19T13:16:29;2.10;;;1.38;;
38715;SDS011;24833;49.324;8.694;2023-11-19T13:18:57;2.85;;;1.52;;
38715;SDS011;24833;49.324;8.694;2023-11-19T13:21:26;5.43;;;1.20;;
38715;SDS011;24833;49.324;8.694;2023-11-19T13:23:53;4.50;;;1.45;;
38715;SDS011;24833;49.324;8.694;2023-11-19T13:26:21;3.63;;;1.38;;
38715;SDS011;24833;49.324;8.694;2023-11-19T13:28:48;1.40;;;1.20;;
38715;SDS011;24833;49.324;8.694;2023-11-19T13:31:16;3.00;;;1.00;;
38715;SDS011;24833;49.324;8.694;2023-11-19T13:33:43;1.60;;;1.25;;
38715;SDS011;24833;49.324;8.694;2023-11-19T13:36:10;2.63;;;1.15;;
38715;SDS011;24833;49.324;8.694;2023-11-19T13:38:42;2.00;;;1.15;;
38715;SDS011;24833;49.324;8.694;2023-11-19T13:41:11;1.92;;;1.10;;
38715;SDS011;24833;49.324;8.694;2023-11-19T13:43:39;1.63;;;1.20;;
38715;SDS011;24833;49.324;8.694;2023-11-19T13:46:07;2.20;;;1.20;;
38715;SDS011;24833;49.324;8.694;2023-11-19T13:48:36;2.70;;;1.35;;
38715;SDS011;24833;49.324;8.694;2023-11-19T13:51:03;4.68;;;1.40;;
38715;SDS011;24833;49.324;8.694;2023-11-19T13:53:31;2.05;;;1.10;;
38715;SDS011;24833;49.324;8.694;2023-11-19T13:56:17;3.40;;;1.58;;
38715;SDS011;24833;49.324;8.694;2023-11-19T13:58:44;5.53;;;1.92;;
38715;SDS011;24833;49.324;8.694;2023-11-19T14:01:11;5.95;;;1.73;;
38715;SDS011;24833;49.324;8.694;2023-11-19T14:03:39;3.00;;;1.13;;
38715;SDS011;24833;49.324;8.694;2023-11-19T14:06:08;1.58;;;0.98;;
38715;SDS011;24833;49.324;8.694;2023-11-19T14:08:35;1.88;;;1.10;;
38715;SDS011;24833;49.324;8.694;2023-11-19T14:11:02;5.45;;;1.27;;
38715;SDS011;24833;49.324;8.694;2023-11-19T14:13:29;2.17;;;0.95;;
38715;SDS011;24833;49.324;8.694;2023-11-19T14:15:57;1.50;;;0.85;;
38715;SDS011;24833;49.324;8.694;2023-11-19T14:18:24;3.95;;;1.25;;
38715;SDS011;24833;49.324;8.694;2023-11-19T14:20:51;1.02;;;0.88;;
38715;SDS011;24833;49.324;8.694;2023-11-19T14:23:20;2.60;;;0.93;;
38715;SDS011;24833;49.324;8.694;2023-11-19T14:25:47;3.33;;;1.17;;
38715;SDS011;24833;49.324;8.694;2023-11-19T14:28:16;3.72;;;1.30;;
38715;SDS011;24833;49.324;8.694;2023-11-19T14:30:43;1.90;;;0.98;;
38715;SDS011;24833;49.324;8.694;2023-11-19T14:33:14;3.05;;;1.00;;
38715;SDS011;24833;49.324;8.694;2023-11-19T14:35:41;2.45;;;1.10;;
38715;SDS011;24833;49.324;8.694;2023-11-19T14:38:08;3.92;;;1.75;;
38715;SDS011;24833;49.324;8.694;2023-11-19T14:40:36;1.27;;;1.08;;
38715;SDS011;24833;49.324;8.694;2023-11-19T14:43:06;3.30;;;1.20;;
38715;SDS011;24833;49.324;8.694;2023-11-19T14:45:37;2.28;;;1.50;;
38715;SDS011;24833;49.324;8.694;2023-11-19T14:48:15;2.75;;;1.20;;
38715;SDS011;24833;49.324;8.694;2023-11-19T14:50:44;2.33;;;0.90;;
38715;SDS011;24833;49.324;8.694;2023-11-19T14:53:11;2.58;;;1.05;;
38715;SDS011;24833;49.324;8.694;2023-11-19T14:55:38;2.30;;;1.13;;
38715;SDS011;24833;49.324;8.694;2023-11-19T14:58:05;1.20;;;1.02;;
38715;SDS011;24833;49.324;8.694;2023-11-19T15:00:37;2.25;;;0.93;;
38715;SDS011;24833;49.324;8.694;2023-11-19T15:03:04;2.65;;;1.20;;
38715;SDS011;24833;49.324;8.694;2023-11-19T15:05:33;2.00;;;0.95;;
38715;SDS011;24833;49.324;8.694;2023-11-19T15:08:00;2.10;;;0.98;;
38715;SDS011;24833;49.324;8.694;2023-11-19T15:10:29;3.28;;;1.60;;
38715;SDS011;24833;49.324;8.694;2023-11-19T15:12:56;4.40;;;1.60;;
38715;SDS011;24833;49.324;8.694;2023-11-19T15:15:24;7.03;;;1.40;;
38715;SDS011;24833;49.324;8.694;2023-11-19T15:17:54;1.90;;;1.20;;
38715;SDS011;24833;49.324;8.694;2023-11-19T15:20:21;5.05;;;1.85;;
38715;SDS011;24833;49.324;8.694;2023-11-19T15:22:48;2.85;;;1.40;;
38715;SDS011;24833;49.324;8.694;2023-11-19T15:25:16;3.75;;;1.45;;
38715;SDS011;24833;49.324;8.694;2023-11-19T15:27:43;1.35;;;1.10;;
38715;SDS011;24833;49.324;8.694;2023-11-19T15:30:10;2.78;;;1.00;;
38715;SDS011;24833;49.324;8.694;2023-11-19T15:32:38;3.25;;;1.40;;